Talladega, Alabama
Current Conditions -  °F | °C
As of 11:15 AM on Thursday 27 Nov 2014 (Local Time) from KASN Reporting Station
Broken Clouds Broken Clouds  
Wind Chill: 39°   Ceiling: 4700
Heat Index: 46°   Visibility: 10mi
Dew Point: 29°   Wind: 20mph
Humidity: 51%   Direction: 320°NW
Pressure: 30.37"   Gusts: NA
Location:  33.43°N, 86.1°W
Report Text: KASN 271715Z AUTO 32017KT 10SM SCT041 BKN047 08/M01 A3037 RMK AO2 T00801015
Loading
Personal Weather Stations






























Interactive Weather Map New forecast layout! Learn more

10-Day Weather Forecast

Advertisements
Track Severe Weather on mobile